Time;durP1;ratioP1;P1;durP2;ratioP2;P2;SDS_P1;SDS_P2;PMS_P1;PMS_P2;Temp;Humidity;BMP_temperature;BMP_pressure;BME280_temperature;BME280_humidity;BME280_pressure;Samples;Min_cycle;Max_cycle;Signal;HPM_P1;HPM_P2
2020/12/20 00:02:01;;;;;;;82.95;41.37;;;;;;;1.39;87.57;101725.63;1622374;86;21685;-83
2020/12/20 00:04:27;;;;;;;80.05;38.65;;;;;;;1.39;87.58;101720.54;1622668;85;21231;-83
2020/12/20 00:06:54;;;;;;;77.15;39.13;;;;;;;1.33;87.55;101708.42;1622440;86;21209;-83
2020/12/20 00:09:22;;;;;;;80.25;39.80;;;;;;;1.38;87.55;101715.84;1622475;88;21179;-83
2020/12/20 00:11:52;;;;;;;86.85;40.85;;;;;;;1.37;87.51;101716.66;1622695;86;21251;-83
2020/12/20 00:14:27;;;;;;;81.42;39.00;;;;;;;1.36;87.56;101724.23;1627161;86;21247;-83
2020/12/20 00:17:01;;;;;;;85.95;38.65;;;;;;;1.36;87.54;101722.56;1633650;85;21692;-83
2020/12/20 00:19:28;;;;;;;79.50;37.98;;;;;;;1.37;87.56;101724.30;1627650;85;21470;-83
2020/12/20 00:22:04;;;;;;;86.75;38.45;;;;;;;1.36;87.52;101721.69;1636889;85;21212;-83
2020/12/20 00:24:31;;;;;;;87.67;39.58;;;;;;;1.35;87.54;101723.37;1642522;85;22103;-83
2020/12/20 00:26:58;;;;;;;86.80;40.98;;;;;;;1.33;87.53;101714.39;1640116;86;21227;-83
2020/12/20 00:29:26;;;;;;;77.60;38.40;;;;;;;1.32;87.48;101721.57;1643314;85;21212;-83
2020/12/20 00:31:53;;;;;;;83.70;37.78;;;;;;;1.30;87.50;101719.37;1648664;86;22326;-83
2020/12/20 00:34:19;;;;;;;83.35;39.78;;;;;;;1.28;87.47;101722.66;1648152;86;21195;-83
2020/12/20 00:36:47;;;;;;;83.17;38.10;;;;;;;1.25;87.48;101718.72;1623929;86;21700;-83
2020/12/20 00:39:16;;;;;;;89.42;40.10;;;;;;;1.25;87.55;101722.14;1622092;88;21227;-83
2020/12/20 00:41:45;;;;;;;88.20;40.78;;;;;;;1.28;87.55;101714.61;1629637;86;21784;-83
2020/12/20 00:44:11;;;;;;;90.17;41.55;;;;;;;1.30;87.59;101721.91;1648501;86;21245;-83
2020/12/20 00:46:37;;;;;;;90.42;41.60;;;;;;;1.33;87.61;101728.81;1648886;86;21229;-83
2020/12/20 00:49:04;;;;;;;89.00;40.90;;;;;;;1.30;87.51;101729.97;1647655;86;21256;-83
2020/12/20 00:51:31;;;;;;;90.30;41.08;;;;;;;1.27;87.49;101733.26;1625496;86;25417;-83
2020/12/20 00:54:00;;;;;;;92.20;39.90;;;;;;;1.29;87.49;101732.05;1622015;88;21256;-83
2020/12/20 00:56:27;;;;;;;88.30;41.50;;;;;;;1.27;87.50;101730.70;1621096;88;21239;-83
2020/12/20 00:58:53;;;;;;;93.65;40.78;;;;;;;1.25;87.50;101733.60;1645593;86;21620;-83
2020/12/20 01:01:22;;;;;;;82.82;40.25;;;;;;;1.28;87.52;101730.30;1639045;86;21358;-83
2020/12/20 01:03:48;;;;;;;87.37;39.98;;;;;;;1.29;87.52;101733.31;1647774;86;21203;-82
2020/12/20 01:06:18;;;;;;;93.52;41.30;;;;;;;1.26;87.49;101730.25;1627232;85;21252;-83
2020/12/20 01:08:45;;;;;;;92.35;43.23;;;;;;;1.26;87.48;101726.42;1625054;85;21699;-83
2020/12/20 01:11:13;;;;;;;83.00;40.78;;;;;;;1.26;87.50;101721.73;1623194;86;21176;-83
2020/12/20 01:13:44;;;;;;;91.60;42.00;;;;;;;1.26;87.53;101728.97;1622173;88;21191;-83
2020/12/20 01:16:20;;;;;;;88.65;41.60;;;;;;;1.26;87.50;101731.92;1624281;87;21680;-83
2020/12/20 01:18:47;;;;;;;99.55;43.98;;;;;;;1.27;87.51;101726.89;1636635;86;21179;-83
2020/12/20 01:21:14;;;;;;;;;;;;;;;1.29;87.54;101727.81;1640937;85;21232;-83
2020/12/20 01:23:41;;;;;;;99.25;44.20;;;;;;;1.29;87.50;101724.00;1648344;85;20306;-83
2020/12/20 01:26:07;;;;;;;92.33;42.93;;;;;;;1.28;87.46;101726.08;1649537;86;21236;-83
2020/12/20 01:28:34;;;;;;;96.08;42.98;;;;;;;1.24;87.38;101724.22;1650302;86;21255;-83
2020/12/20 01:31:06;;;;;;;94.85;43.02;;;;;;;1.19;87.35;101724.44;1651441;86;21285;-83
2020/12/20 01:33:36;;;;;;;81.53;41.65;;;;;;;1.13;87.31;101728.42;1642438;86;21223;-83
2020/12/20 01:36:08;;;;;;;78.80;40.75;;;;;;;1.10;87.38;101723.20;1635470;86;21688;-83
2020/12/20 01:38:35;;;;;;;88.97;40.58;;;;;;;1.09;87.40;101729.98;1622638;87;21206;-83
2020/12/20 01:41:03;;;;;;;96.20;43.55;;;;;;;1.07;87.42;101719.26;1623544;88;21231;-83
2020/12/20 01:43:48;;;;;;;84.40;41.73;;;;;;;1.02;87.33;101715.29;1623822;85;21251;-83
2020/12/20 01:46:17;;;;;;;85.83;43.08;;;;;;;0.96;87.31;101718.86;1623710;86;21661;-83
2020/12/20 01:48:46;;;;;;;85.45;43.33;;;;;;;0.95;87.42;101712.89;1628151;86;21212;-83
2020/12/20 01:51:13;;;;;;;86.72;42.48;;;;;;;0.95;87.44;101726.03;1644790;85;21200;-83
2020/12/20 01:53:41;;;;;;;85.60;44.67;;;;;;;0.95;87.44;101723.48;1650281;86;21208;-83
2020/12/20 01:56:08;;;;;;;89.10;44.60;;;;;;;0.95;87.42;101719.67;1650267;86;21176;-83
2020/12/20 01:58:38;;;;;;;89.85;44.80;;;;;;;0.93;87.46;101713.23;1650226;86;21283;-83
2020/12/20 02:01:10;;;;;;;94.77;42.33;;;;;;;0.94;87.46;101704.79;1651041;85;21215;-83
2020/12/20 02:03:37;;;;;;;94.60;43.83;;;;;;;0.92;87.36;101703.86;1624852;85;21211;-83
2020/12/20 02:06:05;;;;;;;91.72;44.15;;;;;;;0.89;87.34;101705.01;1630012;86;21264;-83
2020/12/20 02:08:33;;;;;;;93.17;40.43;;;;;;;0.87;87.35;101702.80;1650197;86;21645;-83
2020/12/20 02:11:12;;;;;;;82.80;38.75;;;;;;;0.84;87.27;101700.53;1649794;85;22039;-83
2020/12/20 02:13:49;;;;;;;82.22;38.23;;;;;;;0.80;87.25;101703.36;1640112;86;21223;-83
2020/12/20 02:16:18;;;;;;;73.05;38.50;;;;;;;0.76;87.28;101703.17;1623632;88;21673;-83
2020/12/20 02:18:44;;;;;;;78.28;38.40;;;;;;;0.72;87.28;101700.03;1644331;85;21215;-83
2020/12/20 02:21:14;;;;;;;77.90;38.25;;;;;;;0.68;87.25;101695.22;1649205;85;26687;-83
2020/12/20 02:23:44;;;;;;;78.60;38.35;;;;;;;0.63;87.23;101691.20;1624973;85;21208;-83
2020/12/20 02:26:12;;;;;;;77.90;38.65;;;;;;;0.59;87.28;101679.16;1647885;86;22300;-83
2020/12/20 02:28:39;;;;;;;78.17;38.40;;;;;;;0.57;87.22;101684.99;1643463;85;21840;-83
2020/12/20 02:31:05;;;;;;;74.20;37.15;;;;;;;0.51;87.18;101680.55;1623818;86;21645;-83
2020/12/20 02:33:33;;;;;;;73.65;34.03;;;;;;;0.48;87.20;101683.37;1623920;87;27246;-83
2020/12/20 02:35:59;;;;;;;74.80;36.60;;;;;;;0.42;87.11;101677.62;1632736;86;21188;-83
2020/12/20 02:38:28;;;;;;;82.55;38.55;;;;;;;0.33;87.07;101680.64;1635944;86;26819;-83
2020/12/20 02:40:57;;;;;;;80.55;39.50;;;;;;;0.29;87.17;101682.99;1623848;86;21538;-83
2020/12/20 02:43:23;;;;;;;85.40;38.05;;;;;;;0.25;87.17;101682.39;1623780;86;21195;-83
2020/12/20 02:45:49;;;;;;;79.77;40.67;;;;;;;0.21;87.20;101680.12;1623911;86;21499;-83
2020/12/20 02:48:15;;;;;;;81.08;38.92;;;;;;;0.19;87.20;101669.41;1623820;88;21227;-83
2020/12/20 02:50:42;;;;;;;81.97;38.80;;;;;;;0.16;87.22;101670.55;1649932;86;21204;-83
2020/12/20 02:53:08;;;;;;;76.70;37.67;;;;;;;0.13;87.20;101671.69;1649044;85;21991;-84
2020/12/20 02:55:34;;;;;;;57.53;29.42;;;;;;;0.09;87.18;101666.00;1623749;86;21219;-84
2020/12/20 02:58:01;;;;;;;75.52;38.85;;;;;;;0.07;87.19;101663.80;1623918;88;21519;-84
2020/12/20 03:00:27;;;;;;;77.60;38.23;;;;;;;0.03;87.13;101663.19;1634427;85;21645;-84
2020/12/20 03:02:53;;;;;;;76.53;38.05;;;;;;;-0.01;87.19;101667.31;1623706;87;26683;-84
2020/12/20 03:05:20;;;;;;;71.45;35.05;;;;;;;-0.04;87.16;101670.98;1623665;88;22434;-84
2020/12/20 03:07:49;;;;;;;72.62;36.93;;;;;;;-0.06;87.19;101662.02;1626194;86;21239;-84
2020/12/20 03:10:17;;;;;;;70.87;36.42;;;;;;;-0.08;87.25;101672.93;1626473;86;21232;-84
2020/12/20 03:12:44;;;;;;;72.42;37.42;;;;;;;-0.09;87.22;101672.45;1623509;88;21203;-84
2020/12/20 03:15:11;;;;;;;78.52;38.25;;;;;;;-0.11;87.21;101662.62;1630638;86;21529;-84
2020/12/20 03:17:37;;;;;;;76.80;37.25;;;;;;;-0.13;87.19;101676.54;1646221;86;21274;-84
2020/12/20 03:20:05;;;;;;;77.08;37.75;;;;;;;-0.14;87.21;101678.61;1639723;86;21238;-84
2020/12/20 03:22:32;;;;;;;72.72;37.13;;;;;;;-0.16;87.22;101676.80;1622006;86;21211;-84
2020/12/20 03:24:58;;;;;;;;;;;;;;;-0.16;87.18;101681.89;1649553;85;21203;-84
2020/12/20 03:27:25;;;;;;;70.57;36.13;;;;;;;-0.18;87.20;101679.27;1648218;86;36096;-84
2020/12/20 03:29:52;;;;;;;71.00;35.48;;;;;;;-0.20;87.21;101679.61;1648618;85;21247;-84
2020/12/20 03:32:18;;;;;;;71.10;36.95;;;;;;;-0.20;87.23;101677.06;1626625;86;21195;-84
2020/12/20 03:34:44;;;;;;;73.37;37.05;;;;;;;-0.25;87.12;101681.48;1648108;86;21184;-84
2020/12/20 03:37:11;;;;;;;74.55;37.15;;;;;;;-0.28;87.15;101684.75;1647358;86;22144;-84
2020/12/20 03:39:37;;;;;;;70.22;35.80;;;;;;;-0.31;87.13;101682.47;1635922;87;21236;-84
2020/12/20 03:42:03;;;;;;;68.28;35.52;;;;;;;-0.32;87.18;101690.89;1645134;87;21493;-84
2020/12/20 03:44:30;;;;;;;73.52;38.08;;;;;;;-0.35;87.17;101698.84;1648573;87;25289;-84
2020/12/20 03:46:56;;;;;;;78.00;37.88;;;;;;;-0.36;87.21;101691.16;1638595;85;21199;-84
2020/12/20 03:49:22;;;;;;;75.03;36.93;;;;;;;-0.36;87.24;101697.11;1633799;87;21482;-84
2020/12/20 03:51:48;;;;;;;74.35;36.30;;;;;;;-0.36;87.19;101705.13;1648749;87;21220;-84
2020/12/20 03:54:15;;;;;;;72.72;37.03;;;;;;;-0.38;87.19;101705.06;1645851;85;21077;-84
2020/12/20 03:56:41;;;;;;;75.70;36.15;;;;;;;-0.39;87.23;101712.21;1625473;86;22244;-84
2020/12/20 03:59:07;;;;;;;77.03;36.90;;;;;;;-0.40;87.19;101710.47;1622114;88;21180;-84
2020/12/20 04:01:34;;;;;;;74.42;36.58;;;;;;;-0.44;87.20;101699.70;1622753;85;21223;-84
2020/12/20 04:04:00;;;;;;;68.80;34.75;;;;;;;-0.44;87.20;101699.70;1622159;87;21203;-84
2020/12/20 04:06:26;;;;;;;74.50;36.45;;;;;;;-0.44;87.12;101690.80;1622139;88;21207;-84
2020/12/20 04:08:52;;;;;;;70.72;36.03;;;;;;;-0.45;87.10;101703.44;1621950;88;21204;-84
2020/12/20 04:11:19;;;;;;;68.05;34.73;;;;;;;-0.47;87.06;101703.37;1647442;86;21666;-84
2020/12/20 04:13:45;;;;;;;;;;;;;;;-0.50;87.01;101697.27;1650991;87;21224;-84
2020/12/20 04:16:12;;;;;;;71.80;34.03;;;;;;;-0.55;86.99;101702.17;1646079;85;26780;-84
2020/12/20 04:18:38;;;;;;;72.03;34.45;;;;;;;-0.57;87.07;101696.16;1648576;87;21053;-84
2020/12/20 04:21:05;;;;;;;;;;;;;;;-0.59;87.05;101701.56;1654160;85;21232;-84
2020/12/20 04:23:31;;;;;;;69.07;33.10;;;;;;;-0.62;87.04;101703.09;1621189;87;20305;-84
2020/12/20 04:25:58;;;;;;;71.00;33.55;;;;;;;-0.64;87.05;101703.41;1632162;87;22342;-84
2020/12/20 04:28:24;;;;;;;69.25;33.23;;;;;;;-0.67;87.04;101705.02;1622176;87;21231;-84
2020/12/20 04:30:54;;;;;;;68.25;31.80;;;;;;;-0.71;86.97;101700.98;1623564;86;21236;-84
2020/12/20 04:33:20;;;;;;;71.80;34.40;;;;;;;-0.76;86.98;101706.25;1621966;87;22069;-84
2020/12/20 04:35:46;;;;;;;65.03;34.95;;;;;;;-0.81;86.96;101707.30;1625929;86;21219;-84
2020/12/20 04:38:13;;;;;;;71.70;35.92;;;;;;;-0.83;87.05;101701.28;1630691;86;21263;-84
2020/12/20 04:40:39;;;;;;;74.07;36.15;;;;;;;-0.81;87.18;101697.14;1631166;86;21981;-83
2020/12/20 04:43:09;;;;;;;69.60;34.70;;;;;;;-0.79;87.19;101696.81;1640557;86;21371;-84
2020/12/20 04:45:37;;;;;;;69.77;35.40;;;;;;;-0.80;87.11;101698.88;1636953;86;21231;-84
2020/12/20 04:48:04;;;;;;;76.42;35.92;;;;;;;-0.80;87.12;101699.28;1622120;86;21279;-84
2020/12/20 04:50:31;;;;;;;69.60;35.05;;;;;;;-0.80;87.15;101687.45;1632977;85;21744;-84
2020/12/20 04:53:00;;;;;;;75.72;35.68;;;;;;;-0.81;87.09;101686.12;1622199;87;21208;-84
2020/12/20 04:55:27;;;;;;;67.70;35.95;;;;;;;-0.83;87.17;101688.58;1622216;88;21222;-84
2020/12/20 04:57:55;;;;;;;68.70;34.85;;;;;;;-0.81;87.24;101690.80;1622505;86;21227;-84
2020/12/20 05:00:23;;;;;;;67.22;34.78;;;;;;;-0.79;87.24;101693.41;1622165;86;21221;-84
2020/12/20 05:02:49;;;;;;;62.00;34.03;;;;;;;-0.79;87.27;101689.20;1622265;88;21615;-84
2020/12/20 05:05:16;;;;;;;;;;;;;;;-0.77;87.20;101694.35;1625825;86;21514;-84
2020/12/20 05:07:42;;;;;;;;;;;;;;;-0.80;87.17;101695.08;1624724;86;21179;-84
2020/12/20 05:10:09;;;;;;;66.57;31.52;;;;;;;-0.80;87.17;101690.40;1622352;87;20288;-84
2020/12/20 05:12:37;;;;;;;70.00;35.35;;;;;;;-0.81;87.16;101693.34;1641506;86;21220;-84
2020/12/20 05:15:24;;;;;;;65.17;34.38;;;;;;;-0.82;87.15;101694.13;1649028;85;21192;-84
2020/12/20 05:18:06;;;;;;;70.67;34.27;;;;;;;-0.81;87.18;101698.41;1637305;85;21219;-84
2020/12/20 05:20:49;;;;;;;67.15;33.90;;;;;;;-0.80;87.16;101705.63;1646801;86;21432;-84
2020/12/20 05:23:16;;;;;;;70.95;33.60;;;;;;;-0.81;87.15;101702.22;1648864;86;21760;-84
2020/12/20 05:25:43;;;;;;;67.22;34.05;;;;;;;-0.82;87.13;101713.58;1637205;85;21643;-84
2020/12/20 05:28:18;;;;;;;74.80;35.23;;;;;;;-0.84;87.07;101716.05;1622200;86;21681;-84
2020/12/20 05:30:46;;;;;;;74.92;33.35;;;;;;;-0.85;87.08;101723.59;1622208;87;21680;-84
2020/12/20 05:33:28;;;;;;;66.87;32.85;;;;;;;-0.85;87.10;101721.92;1622347;85;22467;-84
2020/12/20 05:36:02;;;;;;;67.58;32.63;;;;;;;-0.86;87.04;101723.11;1619227;87;21688;-84
2020/12/20 05:38:29;;;;;;;63.55;32.28;;;;;;;-0.88;87.00;101723.04;1621677;87;21223;-84
2020/12/20 05:40:55;;;;;;;61.70;33.25;;;;;;;-0.91;86.95;101723.29;1622047;87;21248;-84
2020/12/20 05:43:27;;;;;;;75.12;37.28;;;;;;;-0.92;86.98;101723.69;1628239;86;21701;-84
2020/12/20 05:45:58;;;;;;;71.65;35.48;;;;;;;-0.93;87.02;101720.68;1648561;86;21234;-84
2020/12/20 05:48:27;;;;;;;67.32;35.10;;;;;;;-0.95;86.97;101728.62;1630343;86;21672;-84
2020/12/20 05:50:56;;;;;;;69.27;35.55;;;;;;;-0.97;87.01;101726.41;1621919;88;21255;-84
2020/12/20 05:53:26;;;;;;;74.80;35.68;;;;;;;-0.98;87.04;101731.41;1621996;88;21549;-84
2020/12/20 05:55:56;;;;;;;75.03;36.23;;;;;;;-0.98;87.07;101733.94;1621900;86;21239;-84
2020/12/20 05:58:22;;;;;;;68.97;33.45;;;;;;;-1.00;87.02;101733.88;1623020;86;22335;-84
2020/12/20 06:00:49;;;;;;;70.32;33.45;;;;;;;-1.04;86.97;101731.58;1629630;86;21696;-84
2020/12/20 06:03:16;;;;;;;69.32;34.60;;;;;;;-1.04;86.99;101740.89;1646237;86;21215;-84
2020/12/20 06:05:47;;;;;;;66.20;34.53;;;;;;;-1.05;87.01;101739.16;1633041;85;21263;-84
2020/12/20 06:08:17;;;;;;;64.65;33.48;;;;;;;-1.06;87.05;101733.60;1637586;86;21210;-84
2020/12/20 06:10:52;;;;;;;61.68;32.85;;;;;;;-1.08;86.98;101736.06;1624556;86;21246;-83
2020/12/20 06:13:21;;;;;;;63.38;31.40;;;;;;;-1.08;86.98;101740.27;1622180;86;21252;-83
2020/12/20 06:15:54;;;;;;;63.65;31.80;;;;;;;-1.10;86.94;101736.79;1626217;86;21195;-83
2020/12/20 06:18:31;;;;;;;68.25;33.30;;;;;;;-1.12;86.87;101740.92;1632806;85;21187;-82
2020/12/20 06:21:01;;;;;;;58.85;30.72;;;;;;;-1.16;86.84;101743.70;1639549;86;21132;-82
2020/12/20 06:23:32;;;;;;;65.80;30.37;;;;;;;-1.20;86.83;101744.34;1632999;86;21448;-83
2020/12/20 06:26:02;;;;;;;65.65;31.95;;;;;;;-1.24;86.82;101743.72;1631933;85;21561;-83
2020/12/20 06:28:31;;;;;;;69.62;33.33;;;;;;;-1.25;86.86;101739.44;1647315;86;21223;-83
2020/12/20 06:30:59;;;;;;;74.45;34.30;;;;;;;-1.26;86.93;101740.62;1646069;86;21270;-83
2020/12/20 06:33:48;;;;;;;66.20;32.73;;;;;;;-1.26;86.94;101749.11;1643482;86;21242;-83
2020/12/20 06:36:16;;;;;;;67.90;33.90;;;;;;;-1.29;86.88;101752.77;1647931;86;21159;-83
2020/12/20 06:38:54;;;;;;;66.35;32.45;;;;;;;-1.31;86.83;101756.89;1628441;85;21236;-83
2020/12/20 06:41:40;;;;;;;65.35;33.45;;;;;;;-1.34;86.86;101760.15;1649717;86;21140;-83
2020/12/20 06:44:16;;;;;;;64.50;32.30;;;;;;;-1.35;86.84;101757.53;1651906;85;21125;-83
2020/12/20 06:46:45;;;;;;;61.53;28.90;;;;;;;-1.37;86.86;101756.19;1648312;85;21569;-83
2020/12/20 06:49:34;;;;;;;57.73;29.70;;;;;;;-1.37;86.87;101761.26;1644245;85;21370;-83
2020/12/20 06:52:28;;;;;;;51.90;26.62;;;;;;;-1.38;86.84;101762.45;1654641;86;21219;-83
2020/12/20 06:55:10;;;;;;;55.78;27.45;;;;;;;-1.40;86.86;101759.84;1647021;86;21216;-83
2020/12/20 06:58:05;;;;;;;53.08;27.37;;;;;;;-1.41;86.83;101759.76;1647272;86;21207;-82
2020/12/20 07:00:53;;;;;;;60.30;27.80;;;;;;;-1.42;86.85;101760.16;1640705;85;21196;-83
2020/12/20 07:03:31;;;;;;;47.17;25.92;;;;;;;-1.42;86.80;101766.89;1647694;86;21768;-83
2020/12/20 07:05:56;;;;;;;53.83;26.73;;;;;;;-1.46;86.74;101771.34;1640684;86;21826;-83
2020/12/20 07:08:30;;;;;;;59.98;26.48;;;;;;;-1.47;86.76;101777.20;1629638;86;21249;-83
2020/12/20 07:10:59;;;;;;;52.78;26.85;;;;;;;-1.49;86.81;101773.71;1643871;85;21641;-83
2020/12/20 07:13:39;;;;;;;62.73;30.20;;;;;;;-1.48;86.84;101771.26;1645692;86;21204;-83
2020/12/20 07:16:25;;;;;;;48.87;27.98;;;;;;;-1.44;86.93;101773.16;1636515;86;21909;-83
2020/12/20 07:19:02;;;;;;;49.67;25.88;;;;;;;-1.41;86.87;101783.86;1636094;85;25438;-83
2020/12/20 07:21:33;;;;;;;53.90;26.35;;;;;;;-1.46;86.77;101778.95;1648379;85;21642;-83
2020/12/20 07:24:14;;;;;;;51.63;27.98;;;;;;;-1.46;86.84;101783.63;1651393;85;21645;-83
2020/12/20 07:26:41;;;;;;;54.33;26.00;;;;;;;-1.40;86.97;101776.33;1642693;86;21163;-82
2020/12/20 07:29:08;;;;;;;51.88;26.02;;;;;;;-1.35;86.92;101779.09;1651772;85;21229;-82
2020/12/20 07:31:35;;;;;;;49.25;25.05;;;;;;;-1.32;86.90;101784.72;1605650;87;21791;-82
2020/12/20 07:34:04;;;;;;;53.02;27.65;;;;;;;-1.29;86.85;101778.53;1650425;86;21185;-82
2020/12/20 07:36:31;;;;;;;47.90;25.30;;;;;;;-1.27;86.92;101771.88;1653349;85;22298;-82
2020/12/20 07:38:57;;;;;;;50.48;26.33;;;;;;;-1.24;86.87;101771.63;1612330;87;21231;-82
2020/12/20 07:41:26;;;;;;;50.80;26.57;;;;;;;-1.22;86.88;101769.17;1610526;87;21223;-82
2020/12/20 07:43:53;;;;;;;49.95;26.05;;;;;;;-1.20;86.86;101776.06;1653834;86;21231;-82
2020/12/20 07:46:21;;;;;;;60.38;29.25;;;;;;;-1.17;86.86;101777.48;1652170;85;21676;-82
2020/12/20 07:48:48;;;;;;;58.08;29.55;;;;;;;-1.11;86.96;101779.06;1649637;85;21187;-82
2020/12/20 07:51:22;;;;;;;54.30;28.83;;;;;;;-1.06;86.94;101778.89;1651667;86;21211;-82
2020/12/20 07:53:58;;;;;;;49.85;27.87;;;;;;;-1.03;86.94;101773.06;1654835;85;21367;-82
2020/12/20 07:56:33;;;;;;;59.27;29.12;;;;;;;-0.97;86.89;101778.84;1645286;85;22056;-82
2020/12/20 07:59:06;;;;;;;58.33;32.20;;;;;;;-0.94;86.87;101778.59;1649415;85;21207;-82
2020/12/20 08:01:34;;;;;;;62.85;34.03;;;;;;;-0.90;86.92;101772.87;1640107;85;21233;-82
2020/12/20 08:04:09;;;;;;;70.17;33.75;;;;;;;-0.83;87.01;101776.18;1641590;86;21220;-82
2020/12/20 08:06:42;;;;;;;54.67;29.85;;;;;;;-0.72;87.10;101781.38;1642131;86;21413;-82
2020/12/20 08:09:12;;;;;;;47.03;25.37;;;;;;;-0.63;86.96;101772.47;1648325;86;21207;-82
2020/12/20 08:11:41;;;;;;;50.90;28.67;;;;;;;-0.62;86.87;101779.28;1602837;87;21216;-82
2020/12/20 08:14:15;;;;;;;52.58;27.07;;;;;;;-0.60;86.81;101785.31;1597131;88;21690;-82
2020/12/20 08:16:47;;;;;;;53.40;29.23;;;;;;;-0.53;86.89;101780.99;1651291;85;21200;-81
2020/12/20 08:19:21;;;;;;;60.17;30.97;;;;;;;-0.49;86.92;101789.20;1656474;85;21771;-81
2020/12/20 08:22:08;;;;;;;60.75;30.12;;;;;;;-0.45;87.00;101781.80;1646490;85;21196;-82
2020/12/20 08:24:38;;;;;;;51.18;28.73;;;;;;;-0.40;86.97;101787.09;1648257;86;21184;-82
2020/12/20 08:27:29;;;;;;;50.05;27.48;;;;;;;-0.38;86.98;101789.31;1648671;85;22352;-81
2020/12/20 08:29:58;;;;;;;52.83;30.68;;;;;;;-0.37;86.99;101794.47;1645418;85;21201;-81
2020/12/20 08:32:29;;;;;;;59.75;29.07;;;;;;;-0.34;87.00;101793.34;1651370;86;21670;-81
2020/12/20 08:35:13;;;;;;;48.45;27.17;;;;;;;-0.30;87.04;101794.75;1658186;85;21227;-82
2020/12/20 08:37:40;;;;;;;48.48;26.02;;;;;;;-0.25;87.08;101795.84;1636630;84;21223;-82
2020/12/20 08:40:17;;;;;;;45.75;25.20;;;;;;;-0.17;87.21;101792.86;1650326;86;28846;-82
2020/12/20 08:42:46;;;;;;;46.60;25.82;;;;;;;-0.12;87.21;101795.20;1635924;86;21229;-82
2020/12/20 08:45:16;;;;;;;44.65;24.55;;;;;;;-0.03;87.30;101798.58;1650291;86;21193;-82
2020/12/20 08:47:44;;;;;;;43.15;22.87;;;;;;;0.04;87.31;101797.16;1614168;86;21256;-82
2020/12/20 08:50:12;;;;;;;43.23;23.67;;;;;;;0.10;87.34;101797.03;1640667;86;21203;-82
2020/12/20 08:52:39;;;;;;;41.35;23.20;;;;;;;0.19;87.37;101797.45;1623771;86;21263;-82
2020/12/20 08:55:07;;;;;;;44.80;22.82;;;;;;;0.27;87.35;101798.66;1630832;87;21218;-82
2020/12/20 08:57:35;;;;;;;39.23;21.60;;;;;;;0.35;87.33;101799.41;1640268;86;21668;-82
2020/12/20 09:00:13;;;;;;;47.53;26.02;;;;;;;0.43;87.35;101800.61;1644999;86;21212;-82
2020/12/20 09:02:40;;;;;;;49.77;26.55;;;;;;;0.51;87.36;101806.51;1645645;85;339172;-82
2020/12/20 09:05:15;;;;;;;67.17;34.78;;;;;;;0.56;87.27;101802.45;1631397;85;21237;-82
2020/12/20 09:07:52;;;;;;;71.35;37.05;;;;;;;0.61;87.30;101806.08;1629752;86;21226;-87
2020/12/20 09:10:22;;;;;;;54.55;29.60;;;;;;;0.64;87.31;101797.30;1647774;85;21221;-82
2020/12/20 09:12:53;;;;;;;50.17;25.35;;;;;;;0.71;87.28;101795.02;1651750;85;21198;-82
2020/12/20 09:15:36;;;;;;;45.25;23.55;;;;;;;0.72;87.29;101800.17;1660356;85;21206;-82
2020/12/20 09:18:15;;;;;;;44.45;22.95;;;;;;;0.78;87.30;101799.56;1604502;87;21221;-82
2020/12/20 09:20:44;;;;;;;55.43;25.35;;;;;;;0.81;87.31;101792.93;1608280;88;21203;-82
2020/12/20 09:23:22;;;;;;;46.58;23.47;;;;;;;0.85;87.26;101796.48;1613744;88;22123;-83
2020/12/20 09:25:50;;;;;;;45.35;23.12;;;;;;;0.87;87.26;101794.87;1594075;88;21226;-83
2020/12/20 09:28:22;;;;;;;46.02;24.10;;;;;;;0.91;87.25;101798.88;1585633;89;21252;-83
2020/12/20 09:30:51;;;;;;;46.00;24.30;;;;;;;0.96;87.29;101796.53;1652344;85;21186;-87
2020/12/20 09:33:33;;;;;;;60.35;27.40;;;;;;;1.00;87.29;101800.94;1643926;85;21620;-83
2020/12/20 09:36:15;;;;;;;50.92;25.90;;;;;;;1.04;87.32;101796.41;1650138;86;22205;-83
2020/12/20 09:38:50;;;;;;;47.17;24.75;;;;;;;1.10;87.33;101799.21;1638720;85;21192;-83
2020/12/20 09:41:23;;;;;;;46.60;25.23;;;;;;;1.13;87.23;101793.37;1626771;85;21715;-83
2020/12/20 09:43:52;;;;;;;44.27;23.05;;;;;;;1.16;87.29;101798.19;1655898;85;21235;-83
2020/12/20 09:46:25;;;;;;;45.08;25.08;;;;;;;1.21;87.32;101795.42;1646011;85;21653;-84
2020/12/20 09:48:53;;;;;;;40.45;21.97;;;;;;;1.27;87.33;101793.53;1633960;86;21242;-85
2020/12/20 09:51:22;;;;;;;43.90;22.75;;;;;;;1.31;87.30;101787.75;1649108;85;21235;-85
2020/12/20 09:53:49;;;;;;;43.87;24.60;;;;;;;1.34;87.27;101787.88;1655181;84;21250;-85
2020/12/20 09:56:17;;;;;;;37.40;23.18;;;;;;;1.37;87.26;101783.31;1649661;86;21241;-85
2020/12/20 09:58:45;;;;;;;37.03;21.33;;;;;;;1.41;87.25;101783.49;1644175;85;21221;-85
2020/12/20 10:01:19;;;;;;;42.83;23.10;;;;;;;1.46;87.28;101788.38;1628069;86;21743;-84
2020/12/20 10:03:46;;;;;;;36.93;22.15;;;;;;;1.50;87.31;101788.09;1628792;85;21246;-84
2020/12/20 10:06:14;;;;;;;44.88;25.30;;;;;;;1.55;87.30;101792.56;1633345;85;21214;-83
2020/12/20 10:08:40;;;;;;;36.48;20.92;;;;;;;1.58;87.27;101785.00;1654526;85;21208;-76
2020/12/20 10:11:08;;;;;;;;;;;;;;;1.62;87.31;101787.27;1652734;86;21532;-77
2020/12/20 10:13:35;;;;;;;36.93;20.65;;;;;;;1.68;87.34;101781.12;1627197;85;21272;-79
2020/12/20 10:16:01;;;;;;;;;;;;;;;1.74;87.35;101785.19;1655545;85;21214;-76
2020/12/20 10:18:27;;;;;;;38.60;22.67;;;;;;;1.78;87.29;101778.12;1634301;85;20235;-77
2020/12/20 10:20:53;;;;;;;48.85;26.48;;;;;;;1.82;87.28;101783.80;1656141;84;21218;-76
2020/12/20 10:23:20;;;;;;;43.23;24.82;;;;;;;1.84;87.25;101782.19;1652311;84;21707;-78
2020/12/20 10:25:47;;;;;;;45.48;25.17;;;;;;;1.87;87.28;101784.85;1666897;84;21216;-83
2020/12/20 10:28:13;;;;;;;47.62;25.57;;;;;;;1.90;87.36;101779.87;1670450;84;21235;-79
2020/12/20 10:30:40;;;;;;;46.10;26.73;;;;;;;1.94;87.34;101773.20;1671976;84;21202;-78
2020/12/20 10:33:06;;;;;;;52.75;27.45;;;;;;;1.94;87.26;101767.70;1677344;84;21666;-77
2020/12/20 10:35:32;;;;;;;40.15;23.30;;;;;;;1.92;87.15;101770.59;1674128;84;21205;-77
2020/12/20 10:37:59;;;;;;;46.23;25.35;;;;;;;1.90;87.17;101775.17;1672964;84;21977;-77
2020/12/20 10:40:28;;;;;;;42.27;24.37;;;;;;;1.92;87.21;101774.83;1687837;84;21219;-77
2020/12/20 10:42:54;;;;;;;41.23;22.93;;;;;;;1.93;87.25;101771.05;1646798;84;21224;-77
2020/12/20 10:45:21;;;;;;;36.53;22.48;;;;;;;1.95;87.21;101772.39;1687758;84;21214;-77
2020/12/20 10:47:47;;;;;;;39.23;23.77;;;;;;;1.96;87.18;101774.12;1652147;84;21221;-77
2020/12/20 10:50:15;;;;;;;43.42;25.35;;;;;;;1.99;87.23;101778.94;1679954;85;21221;-77
2020/12/20 10:52:42;;;;;;;44.08;24.43;;;;;;;2.05;87.27;101782.53;1668905;85;21194;-76
2020/12/20 10:55:08;;;;;;;40.52;23.73;;;;;;;2.09;87.28;101780.12;1659832;85;21186;-77
2020/12/20 10:57:34;;;;;;;44.63;24.10;;;;;;;2.16;87.31;101774.43;1655930;84;21241;-77
2020/12/20 11:00:01;;;;;;;39.05;22.50;;;;;;;2.22;87.25;101771.23;1662737;84;26849;-77
2020/12/20 11:02:28;;;;;;;44.05;23.62;;;;;;;2.26;87.31;101770.13;1658377;84;21237;-77
2020/12/20 11:04:54;;;;;;;36.98;22.02;;;;;;;2.32;87.30;101766.52;1634377;86;21241;-77
2020/12/20 11:07:20;;;;;;;41.75;23.20;;;;;;;2.39;87.29;101768.02;1625069;88;21202;-78
2020/12/20 11:09:46;;;;;;;45.30;23.92;;;;;;;2.46;87.28;101767.02;1615837;86;21690;-76
2020/12/20 11:12:13;;;;;;;37.20;22.85;;;;;;;2.50;87.23;101762.48;1606614;87;21249;-77
2020/12/20 11:14:39;;;;;;;37.23;23.15;;;;;;;2.54;87.17;101762.18;1601151;87;21263;-77
2020/12/20 11:17:06;;;;;;;41.68;23.85;;;;;;;2.59;87.21;101769.59;1606291;87;21208;-78
2020/12/20 11:19:32;;;;;;;42.38;24.05;;;;;;;2.59;87.07;101759.37;1623851;86;21271;-78
2020/12/20 11:21:59;;;;;;;47.58;24.65;;;;;;;2.58;87.05;101757.23;1628069;86;21191;-78
2020/12/20 11:24:27;;;;;;;42.33;24.95;;;;;;;2.57;87.08;101757.18;1629776;86;21248;-78
2020/12/20 11:26:55;;;;;;;38.25;23.85;;;;;;;2.58;87.11;101752.13;1626923;86;21226;-77